createdAt,value
2022-09-20T00:03:06.917Z,21.5
2022-09-20T00:08:44.823Z,21.4
2022-09-20T17:01:48.954Z,21.9
2022-09-20T17:07:14.830Z,21.9
2022-09-20T17:12:52.036Z,21.9
2022-09-20T17:18:32.282Z,21.9
2022-09-20T17:23:54.360Z,21.9
2022-09-20T17:29:31.803Z,21.9
2022-09-20T17:35:00.090Z,21.9
2022-09-20T17:40:27.323Z,21.9
2022-09-20T17:45:49.352Z,21.8
2022-09-20T17:51:29.319Z,21.8
2022-09-20T17:56:35.341Z,21.8
2022-09-20T18:02:18.380Z,21.8
2022-09-20T18:07:41.255Z,21.8
2022-09-20T18:12:52.784Z,21.8
2022-09-20T18:18:14.889Z,21.8
2022-09-20T18:23:37.669Z,21.8
2022-09-20T18:29:18.898Z,21.8
2022-09-20T18:34:56.843Z,21.7
2022-09-20T18:40:35.620Z,21.8
2022-09-20T18:45:58.153Z,21.7
2022-09-20T18:50:49.354Z,21.8
2022-09-20T18:56:28.293Z,21.6
2022-09-20T19:02:18.975Z,21.4
2022-09-20T19:07:56.473Z,21.4
2022-09-20T19:13:26.023Z,21.3
2022-09-20T19:24:26.348Z,21
2022-09-20T19:29:53.684Z,20.9
2022-09-20T19:35:15.625Z,20.9
2022-09-20T19:40:52.775Z,21.1
2022-09-20T19:46:31.579Z,21.1
2022-09-20T19:57:17.427Z,21.1
2022-09-20T20:24:02.468Z,21.2
2022-09-20T20:29:25.881Z,21.2
2022-09-20T20:35:09.337Z,21.2
2022-09-20T20:40:47.316Z,21.2
2022-09-20T20:46:27.351Z,21.2
2022-09-20T20:52:06.875Z,21.2
2022-09-20T20:57:28.453Z,21.2
2022-09-20T21:02:39.851Z,21.2
